Time;durP1;ratioP1;P1;durP2;ratioP2;P2;SDS_P1;SDS_P2;PMS_P1;PMS_P2;Temp;Humidity;BMP_temperature;BMP_pressure;BME280_temperature;BME280_humidity;BME280_pressure;Samples;Min_cycle;Max_cycle;Signal;HPM_P1;HPM_P2
2023/10/27 00:02:23;;;;;;;;;;;;;;;8.04;100.00;98911.75;4990888;28;19926;-87
2023/10/27 00:04:54;;;;;;;;;;;;;;;8.02;100.00;98924.00;4981443;28;20271;-88
2023/10/27 00:07:25;;;;;;;;;;;;;;;8.05;100.00;98915.25;5013661;28;19921;-91
2023/10/27 00:10:01;;;;;;;;;;;;;;;7.98;100.00;98908.34;4982715;28;19923;-89
2023/10/27 00:12:29;;;;;;;;;;;;;;;8.04;100.00;98905.50;4997475;28;19929;-90
2023/10/27 00:14:57;;;;;;;;;;;;;;;8.00;100.00;98903.41;4994787;28;19929;-87
2023/10/27 00:17:27;;;;;;;;;;;;;;;8.03;100.00;98902.00;4993020;28;19944;-89
2023/10/27 00:20:03;;;;;;;;;;;;;;;8.02;100.00;98897.69;4995615;28;19925;-89
2023/10/27 00:22:39;;;;;;;;;;;;;;;8.00;100.00;98891.78;4994830;28;19922;-88
2023/10/27 00:25:13;;;;;;;;;;;;;;;7.99;100.00;98892.91;4988717;28;19928;-89
2023/10/27 00:27:41;;;;;;;;;;;;;;;7.98;100.00;98886.69;4994977;28;19925;-87
2023/10/27 00:30:10;;;;;;;;;;;;;;;8.06;100.00;98887.06;4990690;28;19929;-88
2023/10/27 00:32:39;;;;;;;;;;;;;;;8.05;100.00;98888.16;4995051;28;19922;-89
2023/10/27 00:35:07;;;;;;;;;;;;;;;8.00;100.00;98889.09;4995283;28;19930;-88
2023/10/27 00:37:35;;;;;;;;;;;;;;;7.98;100.00;98883.97;4976093;28;19922;-89
2023/10/27 00:40:04;;;;;;;;;;;;;;;7.94;100.00;98882.16;4978640;28;19930;-91
2023/10/27 00:42:33;;;;;;;;;;;;;;;7.97;100.00;98887.00;4979440;28;19926;-89
2023/10/27 00:45:01;;;;;;;;;;;;;;;7.94;100.00;98884.88;4966404;28;19922;-89
2023/10/27 00:47:29;;;;;;;;;;;;;;;7.92;100.00;98878.97;4994985;28;19922;-89
2023/10/27 00:49:59;;;;;;;;;;;;;;;7.95;100.00;98879.16;4995871;28;19922;-88
2023/10/27 00:52:28;;;;;;;;;;;;;;;7.96;100.00;98878.06;4976420;28;19944;-89
2023/10/27 00:55:07;;;;;;;;;;;;;;;8.02;100.00;98880.66;5005504;28;19922;-89
2023/10/27 00:57:41;;;;;;;;;;;;;;;7.99;100.00;98888.25;5004159;28;19944;-90
2023/10/27 01:00:32;;;;;;;;;;;;;;;7.94;100.00;98901.13;4989976;28;19928;-90
2023/10/27 01:03:02;;;;;;;;;;;;;;;7.94;100.00;98895.72;4985877;28;19929;-89
2023/10/27 01:05:32;;;;;;;;;;;;;;;8.00;100.00;98892.59;4994150;28;19926;-89
2023/10/27 01:08:01;;;;;;;;;;;;;;;7.98;100.00;98892.09;4993941;28;20437;-89
2023/10/27 01:10:30;;;;;;;;;;;;;;;7.97;100.00;98887.78;4999348;28;19922;-90
2023/10/27 01:12:59;;;;;;;;;;;;;;;8.04;100.00;98895.50;4997616;28;20758;-89
2023/10/27 01:15:29;;;;;;;;;;;;;;;7.97;100.00;98890.50;4998102;28;20374;-90
2023/10/27 01:17:58;;;;;;;;;;;;;;;7.98;100.00;98889.41;4989053;28;19944;-87
2023/10/27 01:20:26;;;;;;;;;;;;;;;7.99;100.00;98882.06;4993024;28;20338;-90
2023/10/27 01:22:57;;;;;;;;;;;;;;;8.02;100.00;98880.66;4970915;28;19922;-90
2023/10/27 01:25:28;;;;;;;;;;;;;;;8.01;100.00;98874.44;4999828;28;19922;-89
2023/10/27 01:28:02;;;;;;;;;;;;;;;8.00;100.00;98873.63;4987565;28;19922;-90
2023/10/27 01:30:35;;;;;;;;;;;;;;;7.98;100.00;98873.16;4991800;28;19937;-90
2023/10/27 01:33:04;;;;;;;;;;;;;;;7.99;100.00;98865.81;4990776;28;19955;-89
2023/10/27 01:35:37;;;;;;;;;;;;;;;7.93;100.00;98854.28;4994332;28;19921;-91
2023/10/27 01:38:33;;;;;;;;;;;;;;;;;;;;;
2023/10/27 01:41:07;;;;;;;;;;;;;;;7.94;100.00;98858.63;4986345;28;19933;-89
2023/10/27 01:43:37;;;;;;;;;;;;;;;7.90;100.00;98863.03;4997589;28;19921;-89
2023/10/27 01:46:09;;;;;;;;;;;;;;;7.92;100.00;98860.81;4990495;28;19945;-91
2023/10/27 01:48:46;;;;;;;;;;;;;;;7.90;100.00;98857.63;5000753;28;19948;-89
2023/10/27 01:51:21;;;;;;;;;;;;;;;7.81;100.00;98845.91;5005306;28;19990;-87
2023/10/27 01:54:03;;;;;;;;;;;;;;;7.81;100.00;98845.91;4987681;28;19929;-90
2023/10/27 01:56:41;;;;;;;;;;;;;;;7.80;100.00;98845.13;4969349;28;19921;-89
2023/10/27 01:59:11;;;;;;;;;;;;;;;7.81;100.00;98843.19;4977927;28;20291;-89
2023/10/27 02:01:47;;;;;;;;;;;;;;;7.75;100.00;98839.81;4993559;28;19945;-90
2023/10/27 02:04:23;;;;;;;;;;;;;;;7.83;100.00;98841.78;4992627;28;19922;-88
2023/10/27 02:06:51;;;;;;;;;;;;;;;7.74;100.00;98845.53;4983545;28;19921;-88
2023/10/27 02:09:23;;;;;;;;;;;;;;;7.73;100.00;98842.00;4998774;28;20326;-88
2023/10/27 02:11:54;;;;;;;;;;;;;;;7.71;100.00;98840.75;4991672;28;19922;-90
2023/10/27 02:14:31;;;;;;;;;;;;;;;7.54;100.00;98836.78;4992997;28;19925;-91
2023/10/27 02:17:03;;;;;;;;;;;;;;;7.54;100.00;98849.50;4991637;28;19921;-88
2023/10/27 02:19:31;;;;;;;;;;;;;;;7.62;100.00;98841.47;4993120;28;19929;-89
2023/10/27 02:22:26;;;;;;;;;;;;;;;7.68;100.00;98841.34;4986982;28;20291;-88
2023/10/27 02:24:56;;;;;;;;;;;;;;;7.63;100.00;98839.56;4986602;28;20290;-90
2023/10/27 02:27:24;;;;;;;;;;;;;;;7.60;100.00;98834.75;4992638;28;19921;-89
2023/10/27 02:29:52;;;;;;;;;;;;;;;7.60;100.00;98834.75;4976873;28;20378;-91
2023/10/27 02:32:20;;;;;;;;;;;;;;;7.63;100.00;98840.34;4984953;28;19921;-90
2023/10/27 02:34:48;;;;;;;;;;;;;;;7.60;100.00;98838.25;4992586;28;19922;-91
2023/10/27 02:37:16;;;;;;;;;;;;;;;7.62;100.00;98837.94;4993774;28;19922;-89
2023/10/27 02:39:44;;;;;;;;;;;;;;;7.61;100.00;98841.75;4970726;28;19930;-88
2023/10/27 02:42:19;;;;;;;;;;;;;;;7.61;100.00;98852.56;4976690;28;19929;-86
2023/10/27 02:44:47;;;;;;;;;;;;;;;7.63;100.00;98853.88;4973651;28;19929;-90
2023/10/27 02:47:15;;;;;;;;;;;;;;;7.62;100.00;98843.34;4992795;28;19933;-91
2023/10/27 02:49:43;;;;;;;;;;;;;;;7.61;100.00;98856.09;4986537;28;20122;-90
2023/10/27 02:52:11;;;;;;;;;;;;;;;7.61;100.00;98844.47;4992738;28;19923;-89
2023/10/27 02:54:39;;;;;;;;;;;;;;;7.58;100.00;98848.59;4980031;28;19922;-91
2023/10/27 02:57:07;;;;;;;;;;;;;;;7.54;100.00;98858.44;4973513;28;19922;-88
2023/10/27 02:59:42;;;;;;;;;;;;;;;7.57;100.00;98860.53;4994077;28;19921;-88
2023/10/27 03:02:11;;;;;;;;;;;;;;;7.52;100.00;98859.84;4977352;28;19932;-91
2023/10/27 03:04:39;;;;;;;;;;;;;;;7.56;100.00;98860.84;4995151;28;19929;-89
2023/10/27 03:07:07;;;;;;;;;;;;;;;7.59;100.00;98866.41;4988829;28;20375;-91
2023/10/27 03:09:35;;;;;;;;;;;;;;;7.56;100.00;98866.25;4996775;28;20428;-90
2023/10/27 03:12:04;;;;;;;;;;;;;;;7.53;100.00;98867.66;4997351;28;19922;-85
2023/10/27 03:14:32;;;;;;;;;;;;;;;7.52;100.00;98867.97;4979404;28;19921;-90
2023/10/27 03:17:01;;;;;;;;;;;;;;;7.53;100.00;98856.81;4977015;28;19922;-90
2023/10/27 03:19:29;;;;;;;;;;;;;;;7.54;100.00;98860.31;4993099;28;19929;-89
2023/10/27 03:21:57;;;;;;;;;;;;;;;7.42;100.00;98858.94;4985227;28;19929;-91
2023/10/27 03:24:27;;;;;;;;;;;;;;;7.42;100.00;98858.16;4992422;28;19926;-91
2023/10/27 03:26:56;;;;;;;;;;;;;;;7.43;100.00;98865.16;4996722;28;19926;-89
2023/10/27 03:29:28;;;;;;;;;;;;;;;7.47;100.00;98861.56;5000439;28;19929;-89
2023/10/27 03:31:56;;;;;;;;;;;;;;;7.51;100.00;98861.72;4996911;28;19932;-90
2023/10/27 03:34:26;;;;;;;;;;;;;;;7.46;100.00;98870.78;4996629;28;19922;-90
2023/10/27 03:36:54;;;;;;;;;;;;;;;7.51;100.00;98861.72;4985693;28;19922;-89
2023/10/27 03:39:22;;;;;;;;;;;;;;;7.38;100.00;98865.28;4972029;28;19922;-86
2023/10/27 03:41:50;;;;;;;;;;;;;;;7.38;100.00;98866.06;4984217;28;20414;-88
2023/10/27 03:44:18;;;;;;;;;;;;;;;7.45;100.00;98860.25;4991102;28;19922;-87
2023/10/27 03:46:46;;;;;;;;;;;;;;;7.44;100.00;98861.34;4995777;28;19926;-89
2023/10/27 03:49:15;;;;;;;;;;;;;;;7.41;100.00;98856.53;4988238;28;19928;-88
2023/10/27 03:51:44;;;;;;;;;;;;;;;7.40;100.00;98858.47;4999008;28;19921;-88
2023/10/27 03:54:12;;;;;;;;;;;;;;;7.44;100.00;98854.03;4996304;28;19928;-89
2023/10/27 03:56:40;;;;;;;;;;;;;;;7.40;100.00;98852.22;4980286;28;19932;-89
2023/10/27 03:59:10;;;;;;;;;;;;;;;7.37;100.00;98850.94;4994923;28;19921;-88
2023/10/27 04:01:38;;;;;;;;;;;;;;;7.41;100.00;98856.53;4977466;28;19922;-88
2023/10/27 04:04:07;;;;;;;;;;;;;;;7.39;100.00;98853.31;4991626;28;20642;-90
2023/10/27 04:06:35;;;;;;;;;;;;;;;7.38;100.00;98857.94;4994935;28;19929;-88
2023/10/27 04:09:04;;;;;;;;;;;;;;;7.38;100.00;98859.88;4996389;28;19928;-89
2023/10/27 04:11:32;;;;;;;;;;;;;;;7.40;100.00;98852.22;4985829;28;19922;-88
2023/10/27 04:14:00;;;;;;;;;;;;;;;7.40;100.00;98855.75;4966386;28;19930;-89
2023/10/27 04:16:29;;;;;;;;;;;;;;;7.33;100.00;98858.06;4994387;28;19922;-88
2023/10/27 04:18:57;;;;;;;;;;;;;;;7.39;100.00;98842.50;4995430;28;19933;-90
2023/10/27 04:21:26;;;;;;;;;;;;;;;7.36;100.00;98853.94;5000793;28;19990;-88
2023/10/27 04:23:54;;;;;;;;;;;;;;;7.39;100.00;98856.03;4988166;28;19922;-88
2023/10/27 04:26:24;;;;;;;;;;;;;;;7.41;100.00;98857.34;4995313;28;19925;-90
2023/10/27 04:28:53;;;;;;;;;;;;;;;7.38;100.00;98847.13;4984382;28;19940;-90
2023/10/27 04:31:21;;;;;;;;;;;;;;;7.42;100.00;98842.72;4995191;28;19921;-90
2023/10/27 04:33:49;;;;;;;;;;;;;;;7.41;100.00;98845.72;4979270;28;20366;-89
2023/10/27 04:36:18;;;;;;;;;;;;;;;7.40;100.00;98847.63;4995270;28;19947;-90
2023/10/27 04:38:46;;;;;;;;;;;;;;;7.36;100.00;98853.94;4995157;28;19922;-89
2023/10/27 04:41:14;;;;;;;;;;;;;;;7.39;100.00;98837.09;4978715;28;19922;-88
2023/10/27 04:43:43;;;;;;;;;;;;;;;7.33;100.00;98847.22;4980193;28;20742;-89
2023/10/27 04:46:12;;;;;;;;;;;;;;;7.38;100.00;98839.00;4987811;28;19921;-90
2023/10/27 04:48:40;;;;;;;;;;;;;;;7.39;100.00;98840.63;4978607;28;19922;-88
2023/10/27 04:51:09;;;;;;;;;;;;;;;7.42;100.00;98840.00;4960348;28;19925;-91
2023/10/27 04:53:37;;;;;;;;;;;;;;;7.31;100.00;98844.81;4995257;28;19933;-89
2023/10/27 04:56:06;;;;;;;;;;;;;;;7.29;100.00;98849.75;4991582;28;20062;-88
2023/10/27 04:58:34;;;;;;;;;;;;;;;7.34;100.00;98851.53;4993835;28;20286;-89
2023/10/27 05:01:04;;;;;;;;;;;;;;;7.32;100.00;98848.34;4994624;28;19921;-89
2023/10/27 05:03:32;;;;;;;;;;;;;;;7.37;100.00;98847.44;4992903;28;19922;-89
2023/10/27 05:06:06;;;;;;;;;;;;;;;7.33;100.00;98844.53;4995656;28;19928;-87
2023/10/27 05:08:35;;;;;;;;;;;;;;;7.32;100.00;98848.34;4994026;28;20447;-89
2023/10/27 05:11:04;;;;;;;;;;;;;;;7.31;100.00;98846.75;4980926;28;19929;-89
2023/10/27 05:13:32;;;;;;;;;;;;;;;7.35;100.00;98852.34;5001144;28;19933;-90
2023/10/27 05:16:01;;;;;;;;;;;;;;;7.31;100.00;98844.03;4994451;28;20631;-89
2023/10/27 05:18:30;;;;;;;;;;;;;;;7.30;100.00;98845.91;4985700;28;19925;-90
2023/10/27 05:20:58;;;;;;;;;;;;;;;7.31;100.00;98841.34;4991278;28;19928;-90
2023/10/27 05:23:26;;;;;;;;;;;;;;;7.34;100.00;98843.41;4995840;28;20293;-88
2023/10/27 05:25:54;;;;;;;;;;;;;;;7.29;100.00;98838.94;4989427;28;20396;-89
2023/10/27 05:28:23;;;;;;;;;;;;;;;7.26;100.00;98839.50;4975567;28;19933;-89
2023/10/27 05:30:53;;;;;;;;;;;;;;;7.31;100.00;98839.41;4994291;28;19974;-89
2023/10/27 05:33:21;;;;;;;;;;;;;;;7.36;100.00;98833.13;4997073;28;20366;-89
2023/10/27 05:35:51;;;;;;;;;;;;;;;7.34;100.00;98835.31;4998553;28;19933;-88
2023/10/27 05:38:19;;;;;;;;;;;;;;;7.35;100.00;98833.38;4994629;28;20367;-87
2023/10/27 05:40:52;;;;;;;;;;;;;;;7.27;100.00;98841.13;4999591;28;19925;-84
2023/10/27 05:43:25;;;;;;;;;;;;;;;7.31;100.00;98846.75;4992635;28;20290;-84
2023/10/27 05:45:53;;;;;;;;;;;;;;;7.30;100.00;98845.13;4993680;28;19929;-86
2023/10/27 05:48:22;;;;;;;;;;;;;;;7.34;100.00;98843.41;4994254;28;19940;-84
2023/10/27 05:50:51;;;;;;;;;;;;;;;7.31;100.00;98839.41;4992954;28;19926;-87
2023/10/27 05:53:25;;;;;;;;;;;;;;;7.29;100.00;98847.06;4991221;28;19925;-86
2023/10/27 05:55:53;;;;;;;;;;;;;;;7.34;100.00;98840.72;4988665;28;19930;-87
2023/10/27 05:58:21;;;;;;;;;;;;;;;7.31;100.00;98839.41;4991695;28;19921;-86
2023/10/27 06:00:49;;;;;;;;;;;;;;;7.31;100.00;98846.75;4994301;28;19949;-85
2023/10/27 06:03:17;;;;;;;;;;;;;;;7.30;100.00;98847.84;4989338;28;19944;-88
2023/10/27 06:05:52;;;;;;;;;;;;;;;7.27;100.00;98846.53;4995309;28;19963;-85
2023/10/27 06:08:20;;;;;;;;;;;;;;;7.27;100.00;98848.44;4991784;28;20297;-87
2023/10/27 06:10:48;;;;;;;;;;;;;;;7.30;100.00;98848.63;4993703;28;19928;-84
2023/10/27 06:13:21;;;;;;;;;;;;;;;7.31;100.00;98849.44;4990335;28;19922;-86
2023/10/27 06:15:49;;;;;;;;;;;;;;;7.32;100.00;98853.75;4993324;28;19928;-87
2023/10/27 06:18:22;;;;;;;;;;;;;;;7.35;100.00;98849.63;4992669;28;19925;-86
2023/10/27 06:20:56;;;;;;;;;;;;;;;7.37;100.00;98848.22;4969214;28;19930;-86
2023/10/27 06:23:24;;;;;;;;;;;;;;;7.31;100.00;98846.75;4992373;28;19944;-86
2023/10/27 06:25:52;;;;;;;;;;;;;;;7.34;100.00;98846.13;4992179;28;19926;-87
2023/10/27 06:28:20;;;;;;;;;;;;;;;7.35;100.00;98846.91;4997596;28;19926;-86
2023/10/27 06:30:48;;;;;;;;;;;;;;;7.38;100.00;98846.34;4996812;28;20393;-86
2023/10/27 06:33:16;;;;;;;;;;;;;;;7.36;100.00;98843.13;4971302;28;19928;-87
2023/10/27 06:35:45;;;;;;;;;;;;;;;7.35;100.00;98846.91;4991480;28;20401;-89
2023/10/27 06:38:15;;;;;;;;;;;;;;;7.31;100.00;98847.53;4991581;28;19944;-88
2023/10/27 06:40:42;;;;;;;;;;;;;;;7.36;100.00;98848.53;4990595;28;19921;-90
2023/10/27 06:43:10;;;;;;;;;;;;;;;7.36;100.00;98840.41;4992747;28;19926;-87
2023/10/27 06:45:38;;;;;;;;;;;;;;;7.35;100.00;98846.91;4992359;28;19928;-87
2023/10/27 06:48:06;;;;;;;;;;;;;;;7.36;100.00;98848.53;4994452;28;19921;-88
2023/10/27 06:50:34;;;;;;;;;;;;;;;7.35;100.00;98839.63;4993478;28;19941;-87
2023/10/27 06:53:03;;;;;;;;;;;;;;;7.38;100.00;98840.91;4969089;28;19929;-87
2023/10/27 06:55:32;;;;;;;;;;;;;;;7.39;100.00;98840.63;4993000;28;20290;-87
2023/10/27 06:58:00;;;;;;;;;;;;;;;7.35;100.00;98849.63;4992387;28;20506;-89
2023/10/27 07:00:28;;;;;;;;;;;;;;;7.38;100.00;98841.72;4991652;28;19928;-87
2023/10/27 07:02:56;;;;;;;;;;;;;;;7.36;100.00;98843.94;4992211;28;19922;-88
2023/10/27 07:05:24;;;;;;;;;;;;;;;7.42;100.00;98845.41;4993260;28;20293;-86
2023/10/27 07:07:52;;;;;;;;;;;;;;;7.41;100.00;98848.44;4966514;28;19926;-90
2023/10/27 07:10:20;;;;;;;;;;;;;;;7.44;100.00;98847.81;4972982;28;19945;-88
2023/10/27 07:12:50;;;;;;;;;;;;;;;7.44;100.00;98847.81;4986436;28;19922;-87
2023/10/27 07:15:19;;;;;;;;;;;;;;;7.49;100.00;98839.59;4991842;28;20386;-88
2023/10/27 07:17:47;;;;;;;;;;;;;;;7.49;100.00;98837.66;4983672;28;20610;-88
2023/10/27 07:20:15;;;;;;;;;;;;;;;7.46;100.00;98838.28;4986465;28;19929;-87
2023/10/27 07:22:45;;;;;;;;;;;;;;;7.51;100.00;98845.50;4992326;28;19976;-87
2023/10/27 07:25:13;;;;;;;;;;;;;;;7.53;100.00;98840.59;4991932;28;19921;-88
2023/10/27 07:27:43;;;;;;;;;;;;;;;7.54;100.00;98833.25;4991830;28;19930;-87
2023/10/27 07:30:13;;;;;;;;;;;;;;;7.54;100.00;98835.97;4986343;28;19922;-88
2023/10/27 07:32:41;;;;;;;;;;;;;;;7.42;100.00;98844.63;4942123;28;19929;-87
2023/10/27 07:35:09;;;;;;;;;;;;;;;7.51;100.00;98837.38;4978838;28;19940;-87
2023/10/27 07:37:37;;;;;;;;;;;;;;;7.51;100.00;98842.00;4964652;28;19944;-88
2023/10/27 07:40:05;;;;;;;;;;;;;;;7.51;100.00;98836.56;4972892;28;19929;-88
2023/10/27 07:42:33;;;;;;;;;;;;;;;7.58;100.00;98835.06;4967996;28;19929;-88
2023/10/27 07:45:01;;;;;;;;;;;;;;;7.57;100.00;98841.56;4970500;28;20918;-89
2023/10/27 07:47:36;;;;;;;;;;;;;;;7.57;100.00;98841.56;4972920;28;19929;-88
2023/10/27 07:50:08;;;;;;;;;;;;;;;7.62;100.00;98838.75;4974183;28;20401;-89
2023/10/27 07:52:44;;;;;;;;;;;;;;;7.62;100.00;98844.19;4960179;28;19929;-88
2023/10/27 07:55:13;;;;;;;;;;;;;;;7.60;100.00;98835.53;4975375;28;19921;-88
2023/10/27 07:57:46;;;;;;;;;;;;;;;7.60;100.00;98843.66;4980546;28;19953;-89
2023/10/27 08:00:19;;;;;;;;;;;;;;;7.63;100.00;98845.75;4971575;28;19930;-89
2023/10/27 08:02:49;;;;;;;;;;;;;;;7.59;100.00;98841.28;4976085;28;19929;-87
2023/10/27 08:05:16;;;;;;;;;;;;;;;7.65;100.00;98835.44;4980013;28;19930;-88
2023/10/27 08:07:45;;;;;;;;;;;;;;;7.59;100.00;98838.56;4985289;28;19953;-87
2023/10/27 08:10:13;;;;;;;;;;;;;;;7.59;100.00;98842.06;4975336;28;19936;-87
2023/10/27 08:12:41;;;;;;;;;;;;;;;7.52;100.00;98844.38;4963451;28;19936;-86
2023/10/27 08:15:10;;;;;;;;;;;;;;;7.55;100.00;98849.19;4976958;28;19921;-88
2023/10/27 08:17:37;;;;;;;;;;;;;;;7.49;100.00;98845.78;4982730;28;19917;-83
2023/10/27 08:20:12;;;;;;;;;;;;;;;7.55;100.00;98841.06;4972730;28;19940;-88
2023/10/27 08:22:40;;;;;;;;;;;;;;;7.59;100.00;98852.88;4956713;28;19929;-87
2023/10/27 08:25:13;;;;;;;;;;;;;;;7.59;100.00;98854.81;4972082;28;19929;-87
2023/10/27 08:27:41;;;;;;;;;;;;;;;7.60;100.00;98849.09;4961019;28;19936;-87
2023/10/27 08:30:09;;;;;;;;;;;;;;;7.55;100.00;98859.22;4970057;28;19928;-86
2023/10/27 08:32:37;;;;;;;;;;;;;;;7.61;100.00;98850.69;4949446;28;19930;-88
2023/10/27 08:35:05;;;;;;;;;;;;;;;7.57;100.00;98854.31;4974815;28;19929;-88
2023/10/27 08:37:35;;;;;;;;;;;;;;;7.60;100.00;98859.91;4971497;28;19930;-87
2023/10/27 08:40:03;;;;;;;;;;;;;;;7.68;100.00;98863.00;4973281;28;19929;-85
2023/10/27 08:42:36;;;;;;;;;;;;;;;7.62;100.00;98870.44;4973158;28;19940;-88
2023/10/27 08:45:04;;;;;;;;;;;;;;;7.64;100.00;98866.31;4979861;28;19936;-86
2023/10/27 08:47:34;;;;;;;;;;;;;;;7.72;100.00;98866.69;4962121;28;19937;-89
2023/10/27 08:50:04;;;;;;;;;;;;;;;7.68;100.00;98857.56;4973778;28;19937;-88
2023/10/27 08:52:33;;;;;;;;;;;;;;;7.75;100.00;98863.41;4975432;28;21337;-88
2023/10/27 08:55:09;;;;;;;;;;;;;;;7.68;100.00;98873.81;4957726;28;19936;-85
2023/10/27 08:57:38;;;;;;;;;;;;;;;7.72;100.00;98867.50;4975182;28;19945;-88
2023/10/27 09:00:07;;;;;;;;;;;;;;;7.72;100.00;98866.69;4955600;28;20510;-87
2023/10/27 09:02:42;;;;;;;;;;;;;;;7.76;100.00;98867.69;4971010;28;19930;-88
2023/10/27 09:05:11;;;;;;;;;;;;;;;7.77;100.00;98870.09;4973660;28;19937;-86
2023/10/27 09:07:39;;;;;;;;;;;;;;;7.79;100.00;98869.81;4974030;28;19941;-86
2023/10/27 09:10:14;;;;;;;;;;;;;;;7.80;100.00;98866.78;4954046;28;19940;-88
2023/10/27 09:12:42;;;;;;;;;;;;;;;7.85;100.00;98865.84;4970777;28;19925;-89
2023/10/27 09:15:13;;;;;;;;;;;;;;;7.88;100.00;98861.75;4970442;28;19929;-88
2023/10/27 09:17:50;;;;;;;;;;;;;;;7.95;100.00;98862.09;4969133;28;20294;-88
2023/10/27 09:20:27;;;;;;;;;;;;;;;7.95;100.00;98868.31;4956145;28;19929;-88
2023/10/27 09:22:59;;;;;;;;;;;;;;;7.95;100.00;98864.81;4966704;28;19928;-88
2023/10/27 09:25:33;;;;;;;;;;;;;;;7.98;100.00;98885.88;4971892;28;20395;-89
2023/10/27 09:28:05;;;;;;;;;;;;;;;8.01;100.00;98871.72;4974932;28;20016;-87
2023/10/27 09:30:34;;;;;;;;;;;;;;;8.06;100.00;98871.59;4960687;28;20623;-89
2023/10/27 09:33:13;;;;;;;;;;;;;;;7.96;100.00;98877.25;4968902;28;20374;-87
2023/10/27 09:35:41;;;;;;;;;;;;;;;8.03;100.00;98877.63;4970631;28;19930;-87
2023/10/27 09:38:09;;;;;;;;;;;;;;;8.03;100.00;98880.34;4972259;28;19937;-88
2023/10/27 09:40:45;;;;;;;;;;;;;;;8.04;100.00;98881.13;4977108;28;19930;-88
2023/10/27 09:43:17;;;;;;;;;;;;;;;8.07;100.00;98881.31;4961889;28;19930;-88
2023/10/27 09:45:50;;;;;;;;;;;;;;;8.03;100.00;98888.47;4971894;28;19936;-88
2023/10/27 09:48:23;;;;;;;;;;;;;;;7.98;100.00;98889.41;4970612;28;19941;-88
2023/10/27 09:50:53;;;;;;;;;;;;;;;7.99;100.00;98885.56;4971389;28;19930;-89
2023/10/27 09:53:21;;;;;;;;;;;;;;;8.02;100.00;98886.06;4972262;28;19929;-87
2023/10/27 09:55:51;;;;;;;;;;;;;;;8.00;100.00;98884.47;4956923;28;19925;-85
2023/10/27 09:58:20;;;;;;;;;;;;;;;8.06;100.00;98887.84;4971003;28;19937;-89
2023/10/27 10:00:49;;;;;;;;;;;;;;;8.05;100.00;98885.44;4973766;28;19929;-87
2023/10/27 10:03:17;;;;;;;;;;;;;;;8.07;100.00;98888.66;4951672;28;20816;-90
2023/10/27 10:06:06;;;;;;;;;;;;;;;8.07;100.00;98883.25;4971226;28;19963;-91
2023/10/27 10:08:34;;;;;;;;;;;;;;;8.05;100.00;98877.31;4956082;28;19929;-89
2023/10/27 10:11:13;;;;;;;;;;;;;;;8.06;100.00;98879.72;4973057;28;20082;-88
2023/10/27 10:13:41;;;;;;;;;;;;;;;8.08;100.00;98880.22;4972595;28;19930;-88
2023/10/27 10:16:10;;;;;;;;;;;;;;;8.07;100.00;98880.53;4970859;28;19937;-88
2023/10/27 10:18:59;;;;;;;;;;;;;;;8.10;100.00;98872.56;4959107;28;19940;-87
2023/10/27 10:21:32;;;;;;;;;;;;;;;8.15;100.00;98879.81;4971846;28;19930;-88
2023/10/27 10:24:22;;;;;;;;;;;;;;;8.21;100.00;98872.34;4972933;28;20006;-88
2023/10/27 10:27:13;;;;;;;;;;;;;;;8.16;100.00;98870.53;4967287;28;19937;-87
2023/10/27 10:29:43;;;;;;;;;;;;;;;8.29;100.00;98868.91;4969644;28;19930;-89
2023/10/27 10:32:30;;;;;;;;;;;;;;;8.32;100.00;98862.84;4951713;28;19921;-88
2023/10/27 10:35:22;;;;;;;;;;;;;;;8.29;100.00;98866.19;4951800;28;19937;-88
2023/10/27 10:37:53;;;;;;;;;;;;;;;8.27;100.00;98866.50;4953125;28;19937;-88
2023/10/27 10:40:26;;;;;;;;;;;;;;;8.25;100.00;98867.91;4973273;28;19937;-88
2023/10/27 10:43:19;;;;;;;;;;;;;;;8.27;100.00;98862.97;4955189;28;19930;-86
2023/10/27 10:45:53;;;;;;;;;;;;;;;8.30;100.00;98865.06;4977028;28;19937;-88
2023/10/27 10:48:22;;;;;;;;;;;;;;;8.34;100.00;98857.91;4970413;28;19929;-90
2023/10/27 10:50:50;;;;;;;;;;;;;;;8.33;100.00;98861.75;4971564;28;19930;-88
2023/10/27 10:53:21;;;;;;;;;;;;;;;8.32;100.00;98855.50;4968381;28;19933;-88
2023/10/27 10:55:50;;;;;;;;;;;;;;;8.37;100.00;98856.50;4956725;28;19948;-90
2023/10/27 10:58:23;;;;;;;;;;;;;;;8.37;100.00;98853.78;4971897;28;19937;-90
2023/10/27 11:00:52;;;;;;;;;;;;;;;8.41;100.00;98852.88;4954805;28;20379;-90
2023/10/27 11:03:22;;;;;;;;;;;;;;;8.39;100.00;98855.06;4971790;28;19929;-89
2023/10/27 11:08:54;;;;;;;;;;;;;;;8.47;100.00;98846.22;4968309;28;20018;-91
2023/10/27 11:11:23;;;;;;;;;;;;;;;8.45;100.00;98853.88;4974641;28;20010;-89
2023/10/27 11:13:53;;;;;;;;;;;;;;;8.31;100.00;98856.63;4976843;28;19929;-91
2023/10/27 11:16:22;;;;;;;;;;;;;;;8.39;100.00;98857.78;4976151;28;20303;-90
2023/10/27 11:18:51;;;;;;;;;;;;;;;8.31;100.00;98859.34;4973839;28;19930;-91
2023/10/27 11:21:19;;;;;;;;;;;;;;;8.37;100.00;98857.31;4975024;28;19929;-87
2023/10/27 11:23:48;;;;;;;;;;;;;;;8.43;100.00;98850.63;4970361;28;20306;-89
2023/10/27 11:26:18;;;;;;;;;;;;;;;8.44;100.00;98854.94;4975140;28;19936;-89
2023/10/27 11:28:46;;;;;;;;;;;;;;;8.41;100.00;98857.47;4973071;28;19929;-89
2023/10/27 11:31:24;;;;;;;;;;;;;;;8.47;100.00;98845.44;4950018;28;19930;-88
2023/10/27 11:33:56;;;;;;;;;;;;;;;8.43;100.00;98847.13;4965050;28;20306;-89
2023/10/27 11:36:24;;;;;;;;;;;;;;;8.46;100.00;98851.97;4975882;28;20196;-90
2023/10/27 11:38:52;;;;;;;;;;;;;;;8.47;100.00;98842.72;4975653;28;19929;-89
2023/10/27 11:41:20;;;;;;;;;;;;;;;8.42;100.00;98849.03;4969626;28;19930;-88
2023/10/27 11:43:48;;;;;;;;;;;;;;;8.45;100.00;98853.06;4975346;28;19977;-88
2023/10/27 11:46:17;;;;;;;;;;;;;;;8.46;100.00;98850.03;4966873;28;19936;-87
2023/10/27 11:48:50;;;;;;;;;;;;;;;8.42;100.00;98853.66;4963659;28;19930;-87
2023/10/27 11:51:18;;;;;;;;;;;;;;;8.36;100.00;98858.41;4973791;28;20306;-87
2023/10/27 11:53:47;;;;;;;;;;;;;;;8.38;100.00;98856.19;4974233;28;21415;-88
2023/10/27 11:56:15;;;;;;;;;;;;;;;8.40;100.00;98858.59;4974705;28;19952;-89
2023/10/27 11:58:43;;;;;;;;;;;;;;;8.38;100.00;98858.09;4967601;28;19929;-87
2023/10/27 12:01:10;;;;;;;;;;;;;;;8.32;100.00;98844.66;4976021;28;19932;-87
2023/10/27 12:03:40;;;;;;;;;;;;;;;8.36;100.00;98853.00;4959942;28;20621;-87
2023/10/27 12:06:09;;;;;;;;;;;;;;;8.33;100.00;98850.91;4975726;28;20544;-88
2023/10/27 12:08:37;;;;;;;;;;;;;;;8.34;100.00;98850.59;4974868;28;19937;-87
2023/10/27 12:11:04;;;;;;;;;;;;;;;8.41;100.00;98847.44;4974259;28;19921;-88
2023/10/27 12:13:32;;;;;;;;;;;;;;;8.39;100.00;98852.38;4955456;28;19930;-87
2023/10/27 12:16:00;;;;;;;;;;;;;;;8.40;100.00;98856.69;4971251;28;19937;-88
2023/10/27 12:18:28;;;;;;;;;;;;;;;8.41;100.00;98855.59;4974179;28;19929;-89
2023/10/27 12:20:58;;;;;;;;;;;;;;;8.35;100.00;98851.38;4971243;28;19936;-88
2023/10/27 12:23:29;;;;;;;;;;;;;;;8.41;100.00;98854.75;4963692;28;20192;-87
2023/10/27 12:26:03;;;;;;;;;;;;;;;8.36;100.00;98849.50;4962838;28;19922;-86
2023/10/27 12:28:32;;;;;;;;;;;;;;;8.40;100.00;98858.59;4972728;28;19937;-88
2023/10/27 12:31:00;;;;;;;;;;;;;;;8.43;100.00;98860.69;4971460;28;19929;-86
2023/10/27 12:33:28;;;;;;;;;;;;;;;8.40;100.00;98853.97;4954053;28;19930;-87
2023/10/27 12:36:09;;;;;;;;;;;;;;;8.41;100.00;98857.47;4960159;28;19949;-87
2023/10/27 12:38:38;;;;;;;;;;;;;;;8.39;100.00;98857.00;4970474;28;19929;-87
2023/10/27 12:41:07;;;;;;;;;;;;;;;8.39;100.00;98849.66;4975753;28;19930;-87
2023/10/27 12:43:35;;;;;;;;;;;;;;;8.34;100.00;98850.59;4951287;28;19930;-88
2023/10/27 12:46:03;;;;;;;;;;;;;;;8.41;100.00;98850.16;4972741;28;20298;-88
2023/10/27 12:48:36;;;;;;;;;;;;;;;8.43;100.00;98847.94;4972504;28;20297;-89
2023/10/27 12:51:11;;;;;;;;;;;;;;;8.46;100.00;98852.75;4955904;28;19936;-88
2023/10/27 12:53:39;;;;;;;;;;;;;;;8.44;100.00;98854.94;4979292;28;19921;-86
2023/10/27 12:56:07;;;;;;;;;;;;;;;8.44;100.00;98840.63;4955148;28;20660;-88
2023/10/27 12:58:41;;;;;;;;;;;;;;;8.47;100.00;98846.22;4977354;28;19936;-88
2023/10/27 13:01:14;;;;;;;;;;;;;;;8.44;100.00;98852.25;4971948;28;19930;-89
2023/10/27 13:03:41;;;;;;;;;;;;;;;8.44;100.00;98846.03;4964663;28;20362;-89
2023/10/27 13:06:15;;;;;;;;;;;;;;;8.48;100.00;98842.41;4957285;28;19930;-89
2023/10/27 13:08:43;;;;;;;;;;;;;;;8.47;100.00;98842.72;4974886;28;19996;-88